sensor_id;sensor_type;location;lat;lon;timestamp;P1;durP1;ratioP1;P2;durP2;ratioP2
70455;SDS011;57916;51.996;5.180;2023-04-29T00:01:15;33.97;;;18.85;;
70455;SDS011;57916;51.996;5.180;2023-04-29T00:03:41;38.35;;;19.13;;
70455;SDS011;57916;51.996;5.180;2023-04-29T00:06:09;38.25;;;20.00;;
70455;SDS011;57916;51.996;5.180;2023-04-29T00:08:37;36.15;;;19.73;;
70455;SDS011;57916;51.996;5.180;2023-04-29T00:11:03;41.58;;;20.48;;
70455;SDS011;57916;51.996;5.180;2023-04-29T00:13:31;39.35;;;20.85;;
70455;SDS011;57916;51.996;5.180;2023-04-29T00:15:58;43.95;;;21.38;;
70455;SDS011;57916;51.996;5.180;2023-04-29T00:18:25;42.38;;;21.13;;
70455;SDS011;57916;51.996;5.180;2023-04-29T00:20:52;47.83;;;23.35;;
70455;SDS011;57916;51.996;5.180;2023-04-29T00:23:19;50.75;;;23.13;;
70455;SDS011;57916;51.996;5.180;2023-04-29T00:25:46;47.83;;;23.95;;
70455;SDS011;57916;51.996;5.180;2023-04-29T00:28:12;57.47;;;24.75;;
70455;SDS011;57916;51.996;5.180;2023-04-29T00:30:39;56.80;;;26.23;;
70455;SDS011;57916;51.996;5.180;2023-04-29T00:33:06;60.30;;;26.33;;
70455;SDS011;57916;51.996;5.180;2023-04-29T00:35:33;64.40;;;27.42;;
70455;SDS011;57916;51.996;5.180;2023-04-29T00:38:00;61.53;;;27.13;;
70455;SDS011;57916;51.996;5.180;2023-04-29T00:40:27;60.78;;;28.00;;
70455;SDS011;57916;51.996;5.180;2023-04-29T00:42:54;57.38;;;27.08;;
70455;SDS011;57916;51.996;5.180;2023-04-29T00:45:22;61.20;;;26.02;;
70455;SDS011;57916;51.996;5.180;2023-04-29T00:47:49;55.35;;;26.85;;
70455;SDS011;57916;51.996;5.180;2023-04-29T00:50:17;55.08;;;26.25;;
70455;SDS011;57916;51.996;5.180;2023-04-29T00:52:44;59.03;;;27.10;;
70455;SDS011;57916;51.996;5.180;2023-04-29T00:55:12;55.78;;;26.30;;
70455;SDS011;57916;51.996;5.180;2023-04-29T00:57:39;60.13;;;27.00;;
70455;SDS011;57916;51.996;5.180;2023-04-29T01:00:08;52.22;;;24.85;;
70455;SDS011;57916;51.996;5.180;2023-04-29T01:02:35;55.35;;;26.45;;
70455;SDS011;57916;51.996;5.180;2023-04-29T01:05:04;58.05;;;27.08;;
70455;SDS011;57916;51.996;5.180;2023-04-29T01:10:38;58.42;;;26.83;;
70455;SDS011;57916;51.996;5.180;2023-04-29T01:13:17;54.38;;;26.95;;
70455;SDS011;57916;51.996;5.180;2023-04-29T01:16:07;66.97;;;28.00;;
70455;SDS011;57916;51.996;5.180;2023-04-29T01:18:45;61.10;;;28.75;;
70455;SDS011;57916;51.996;5.180;2023-04-29T01:21:25;55.20;;;27.10;;
70455;SDS011;57916;51.996;5.180;2023-04-29T01:23:53;47.53;;;24.80;;
70455;SDS011;57916;51.996;5.180;2023-04-29T01:26:26;53.08;;;24.88;;
70455;SDS011;57916;51.996;5.180;2023-04-29T01:29:21;52.80;;;25.05;;
70455;SDS011;57916;51.996;5.180;2023-04-29T01:32:04;41.47;;;21.65;;
70455;SDS011;57916;51.996;5.180;2023-04-29T01:37:37;35.03;;;18.42;;
70455;SDS011;57916;51.996;5.180;2023-04-29T01:43:06;33.97;;;18.05;;
70455;SDS011;57916;51.996;5.180;2023-04-29T01:45:40;32.30;;;18.07;;
70455;SDS011;57916;51.996;5.180;2023-04-29T01:48:10;37.58;;;19.60;;
70455;SDS011;57916;51.996;5.180;2023-04-29T01:50:38;47.10;;;21.58;;
70455;SDS011;57916;51.996;5.180;2023-04-29T01:53:09;42.65;;;20.92;;
70455;SDS011;57916;51.996;5.180;2023-04-29T01:55:36;45.63;;;20.20;;
70455;SDS011;57916;51.996;5.180;2023-04-29T01:58:11;44.53;;;21.30;;
70455;SDS011;57916;51.996;5.180;2023-04-29T02:00:50;41.92;;;20.58;;
70455;SDS011;57916;51.996;5.180;2023-04-29T02:03:17;39.45;;;18.95;;
70455;SDS011;57916;51.996;5.180;2023-04-29T02:05:49;39.22;;;19.25;;
70455;SDS011;57916;51.996;5.180;2023-04-29T02:08:16;38.47;;;18.90;;
70455;SDS011;57916;51.996;5.180;2023-04-29T02:10:51;34.90;;;18.92;;
70455;SDS011;57916;51.996;5.180;2023-04-29T02:13:32;37.70;;;19.37;;
70455;SDS011;57916;51.996;5.180;2023-04-29T02:16:10;35.37;;;18.63;;
70455;SDS011;57916;51.996;5.180;2023-04-29T02:18:47;37.50;;;18.20;;
70455;SDS011;57916;51.996;5.180;2023-04-29T02:21:14;31.80;;;16.42;;
70455;SDS011;57916;51.996;5.180;2023-04-29T02:23:41;35.42;;;17.67;;
70455;SDS011;57916;51.996;5.180;2023-04-29T02:26:08;29.13;;;17.07;;
70455;SDS011;57916;51.996;5.180;2023-04-29T02:28:36;34.17;;;17.45;;
70455;SDS011;57916;51.996;5.180;2023-04-29T02:31:03;34.13;;;17.17;;
70455;SDS011;57916;51.996;5.180;2023-04-29T02:33:30;35.45;;;17.42;;
70455;SDS011;57916;51.996;5.180;2023-04-29T02:35:58;29.33;;;16.20;;
70455;SDS011;57916;51.996;5.180;2023-04-29T02:38:25;29.75;;;16.38;;
70455;SDS011;57916;51.996;5.180;2023-04-29T02:40:52;30.88;;;16.33;;
70455;SDS011;57916;51.996;5.180;2023-04-29T02:43:20;26.80;;;15.57;;
70455;SDS011;57916;51.996;5.180;2023-04-29T02:45:47;32.90;;;16.30;;
70455;SDS011;57916;51.996;5.180;2023-04-29T02:48:14;29.23;;;15.60;;
70455;SDS011;57916;51.996;5.180;2023-04-29T02:50:41;28.65;;;15.48;;
70455;SDS011;57916;51.996;5.180;2023-04-29T02:53:08;30.63;;;14.43;;
70455;SDS011;57916;51.996;5.180;2023-04-29T02:55:35;28.45;;;15.10;;
70455;SDS011;57916;51.996;5.180;2023-04-29T02:58:06;25.70;;;14.25;;
70455;SDS011;57916;51.996;5.180;2023-04-29T03:00:33;26.17;;;14.07;;
70455;SDS011;57916;51.996;5.180;2023-04-29T03:03:00;25.48;;;14.18;;
70455;SDS011;57916;51.996;5.180;2023-04-29T03:05:27;28.92;;;14.07;;
70455;SDS011;57916;51.996;5.180;2023-04-29T03:07:54;26.23;;;13.85;;
70455;SDS011;57916;51.996;5.180;2023-04-29T03:10:21;26.83;;;14.18;;
70455;SDS011;57916;51.996;5.180;2023-04-29T03:12:48;25.27;;;13.80;;
70455;SDS011;57916;51.996;5.180;2023-04-29T03:15:15;26.40;;;13.85;;
70455;SDS011;57916;51.996;5.180;2023-04-29T03:17:43;27.70;;;14.68;;
70455;SDS011;57916;51.996;5.180;2023-04-29T03:20:12;31.02;;;14.15;;
70455;SDS011;57916;51.996;5.180;2023-04-29T03:22:39;27.20;;;14.85;;
70455;SDS011;57916;51.996;5.180;2023-04-29T03:25:06;27.35;;;14.10;;
70455;SDS011;57916;51.996;5.180;2023-04-29T03:27:36;29.30;;;14.93;;
70455;SDS011;57916;51.996;5.180;2023-04-29T03:30:05;25.67;;;15.02;;
70455;SDS011;57916;51.996;5.180;2023-04-29T03:32:34;30.98;;;15.63;;
70455;SDS011;57916;51.996;5.180;2023-04-29T03:35:02;31.85;;;15.85;;
70455;SDS011;57916;51.996;5.180;2023-04-29T03:37:35;28.53;;;15.10;;
70455;SDS011;57916;51.996;5.180;2023-04-29T03:40:23;30.00;;;15.85;;
70455;SDS011;57916;51.996;5.180;2023-04-29T03:42:50;30.48;;;16.30;;
70455;SDS011;57916;51.996;5.180;2023-04-29T03:45:18;31.30;;;16.40;;
70455;SDS011;57916;51.996;5.180;2023-04-29T03:47:45;30.25;;;16.63;;
70455;SDS011;57916;51.996;5.180;2023-04-29T03:50:12;31.07;;;16.00;;
70455;SDS011;57916;51.996;5.180;2023-04-29T03:52:39;30.75;;;16.02;;
70455;SDS011;57916;51.996;5.180;2023-04-29T03:55:13;30.23;;;16.13;;
70455;SDS011;57916;51.996;5.180;2023-04-29T03:57:41;33.50;;;16.15;;
70455;SDS011;57916;51.996;5.180;2023-04-29T04:00:09;34.78;;;16.77;;
70455;SDS011;57916;51.996;5.180;2023-04-29T04:02:43;34.75;;;16.85;;
70455;SDS011;57916;51.996;5.180;2023-04-29T04:05:13;37.25;;;17.50;;
70455;SDS011;57916;51.996;5.180;2023-04-29T04:07:45;30.45;;;16.45;;
70455;SDS011;57916;51.996;5.180;2023-04-29T04:10:38;30.65;;;16.38;;
70455;SDS011;57916;51.996;5.180;2023-04-29T04:13:20;36.60;;;17.75;;
70455;SDS011;57916;51.996;5.180;2023-04-29T04:15:50;33.90;;;17.15;;
70455;SDS011;57916;51.996;5.180;2023-04-29T04:18:17;31.65;;;18.15;;
70455;SDS011;57916;51.996;5.180;2023-04-29T04:20:44;34.75;;;17.38;;
70455;SDS011;57916;51.996;5.180;2023-04-29T04:23:12;34.80;;;16.73;;
70455;SDS011;57916;51.996;5.180;2023-04-29T04:25:45;33.85;;;16.98;;
70455;SDS011;57916;51.996;5.180;2023-04-29T04:28:50;32.80;;;17.52;;
70455;SDS011;57916;51.996;5.180;2023-04-29T04:31:25;33.05;;;17.83;;
70455;SDS011;57916;51.996;5.180;2023-04-29T04:33:52;28.83;;;16.77;;
70455;SDS011;57916;51.996;5.180;2023-04-29T04:36:20;34.23;;;18.23;;
70455;SDS011;57916;51.996;5.180;2023-04-29T04:38:47;34.58;;;17.73;;
70455;SDS011;57916;51.996;5.180;2023-04-29T04:41:14;34.42;;;17.58;;
70455;SDS011;57916;51.996;5.180;2023-04-29T04:43:42;33.10;;;17.70;;
70455;SDS011;57916;51.996;5.180;2023-04-29T04:46:23;33.30;;;17.70;;
70455;SDS011;57916;51.996;5.180;2023-04-29T04:48:57;31.50;;;15.73;;
70455;SDS011;57916;51.996;5.180;2023-04-29T04:51:25;34.33;;;17.07;;
70455;SDS011;57916;51.996;5.180;2023-04-29T04:53:54;34.75;;;17.73;;
70455;SDS011;57916;51.996;5.180;2023-04-29T04:56:22;29.55;;;16.17;;
70455;SDS011;57916;51.996;5.180;2023-04-29T04:58:50;34.72;;;17.27;;
70455;SDS011;57916;51.996;5.180;2023-04-29T05:01:16;32.45;;;17.77;;
70455;SDS011;57916;51.996;5.180;2023-04-29T05:03:43;33.58;;;17.13;;
70455;SDS011;57916;51.996;5.180;2023-04-29T05:06:11;29.90;;;16.40;;
70455;SDS011;57916;51.996;5.180;2023-04-29T05:08:40;30.40;;;16.75;;
70455;SDS011;57916;51.996;5.180;2023-04-29T05:11:18;33.67;;;17.10;;
70455;SDS011;57916;51.996;5.180;2023-04-29T05:13:59;28.05;;;15.70;;
70455;SDS011;57916;51.996;5.180;2023-04-29T05:16:26;29.45;;;15.80;;
70455;SDS011;57916;51.996;5.180;2023-04-29T05:18:53;32.53;;;17.05;;
70455;SDS011;57916;51.996;5.180;2023-04-29T05:21:23;25.02;;;14.93;;
70455;SDS011;57916;51.996;5.180;2023-04-29T05:23:50;25.83;;;15.27;;
70455;SDS011;57916;51.996;5.180;2023-04-29T05:26:17;26.85;;;14.93;;
70455;SDS011;57916;51.996;5.180;2023-04-29T05:28:44;28.00;;;15.68;;
70455;SDS011;57916;51.996;5.180;2023-04-29T05:31:13;25.13;;;15.35;;
70455;SDS011;57916;51.996;5.180;2023-04-29T05:33:40;27.35;;;15.57;;
70455;SDS011;57916;51.996;5.180;2023-04-29T05:36:07;29.10;;;15.90;;
70455;SDS011;57916;51.996;5.180;2023-04-29T05:38:34;26.20;;;15.17;;
70455;SDS011;57916;51.996;5.180;2023-04-29T05:41:03;32.97;;;16.00;;
70455;SDS011;57916;51.996;5.180;2023-04-29T05:44:02;24.88;;;15.05;;
70455;SDS011;57916;51.996;5.180;2023-04-29T05:46:30;27.95;;;14.80;;
70455;SDS011;57916;51.996;5.180;2023-04-29T05:48:57;31.65;;;14.95;;
70455;SDS011;57916;51.996;5.180;2023-04-29T05:51:24;30.27;;;16.00;;
70455;SDS011;57916;51.996;5.180;2023-04-29T05:53:51;27.80;;;15.10;;
70455;SDS011;57916;51.996;5.180;2023-04-29T05:56:18;28.20;;;15.50;;
70455;SDS011;57916;51.996;5.180;2023-04-29T05:58:45;32.13;;;15.50;;
70455;SDS011;57916;51.996;5.180;2023-04-29T06:01:12;30.50;;;15.38;;
70455;SDS011;57916;51.996;5.180;2023-04-29T06:03:39;27.55;;;15.43;;
70455;SDS011;57916;51.996;5.180;2023-04-29T06:06:23;25.25;;;15.57;;
70455;SDS011;57916;51.996;5.180;2023-04-29T06:09:09;35.63;;;16.15;;
70455;SDS011;57916;51.996;5.180;2023-04-29T06:11:53;32.17;;;16.65;;
70455;SDS011;57916;51.996;5.180;2023-04-29T06:14:20;33.35;;;16.08;;
70455;SDS011;57916;51.996;5.180;2023-04-29T06:16:47;29.27;;;16.25;;
70455;SDS011;57916;51.996;5.180;2023-04-29T06:19:14;32.28;;;16.35;;
70455;SDS011;57916;51.996;5.180;2023-04-29T06:21:41;31.17;;;16.48;;
70455;SDS011;57916;51.996;5.180;2023-04-29T06:24:08;39.08;;;16.73;;
70455;SDS011;57916;51.996;5.180;2023-04-29T06:26:35;28.73;;;15.73;;
70455;SDS011;57916;51.996;5.180;2023-04-29T06:29:02;29.35;;;15.40;;
70455;SDS011;57916;51.996;5.180;2023-04-29T06:31:30;32.38;;;15.85;;
70455;SDS011;57916;51.996;5.180;2023-04-29T06:34:01;31.27;;;16.33;;
70455;SDS011;57916;51.996;5.180;2023-04-29T06:36:29;33.55;;;15.30;;
70455;SDS011;57916;51.996;5.180;2023-04-29T06:39:18;23.33;;;14.00;;
70455;SDS011;57916;51.996;5.180;2023-04-29T06:41:59;29.85;;;14.10;;
70455;SDS011;57916;51.996;5.180;2023-04-29T06:44:45;26.63;;;14.33;;
70455;SDS011;57916;51.996;5.180;2023-04-29T06:50:47;27.33;;;14.33;;
70455;SDS011;57916;51.996;5.180;2023-04-29T06:53:18;24.80;;;13.65;;
70455;SDS011;57916;51.996;5.180;2023-04-29T06:55:45;30.25;;;13.95;;
70455;SDS011;57916;51.996;5.180;2023-04-29T06:58:13;24.52;;;13.93;;
70455;SDS011;57916;51.996;5.180;2023-04-29T07:00:44;23.20;;;13.00;;
70455;SDS011;57916;51.996;5.180;2023-04-29T07:03:13;24.67;;;14.57;;
70455;SDS011;57916;51.996;5.180;2023-04-29T07:05:41;25.95;;;14.45;;
70455;SDS011;57916;51.996;5.180;2023-04-29T07:08:11;27.05;;;14.80;;
70455;SDS011;57916;51.996;5.180;2023-04-29T07:10:38;28.90;;;14.23;;
70455;SDS011;57916;51.996;5.180;2023-04-29T07:13:06;26.50;;;14.20;;
70455;SDS011;57916;51.996;5.180;2023-04-29T07:15:34;27.88;;;13.95;;
70455;SDS011;57916;51.996;5.180;2023-04-29T07:18:04;24.70;;;13.80;;
70455;SDS011;57916;51.996;5.180;2023-04-29T07:20:35;27.23;;;12.60;;
70455;SDS011;57916;51.996;5.180;2023-04-29T07:23:02;26.73;;;13.55;;
70455;SDS011;57916;51.996;5.180;2023-04-29T07:25:29;31.42;;;14.30;;
70455;SDS011;57916;51.996;5.180;2023-04-29T07:27:56;24.48;;;13.20;;
70455;SDS011;57916;51.996;5.180;2023-04-29T07:30:24;21.73;;;12.35;;
70455;SDS011;57916;51.996;5.180;2023-04-29T07:32:51;27.50;;;12.63;;
70455;SDS011;57916;51.996;5.180;2023-04-29T07:35:18;18.23;;;11.43;;
70455;SDS011;57916;51.996;5.180;2023-04-29T07:37:46;21.42;;;11.10;;
70455;SDS011;57916;51.996;5.180;2023-04-29T07:40:13;19.10;;;11.40;;
70455;SDS011;57916;51.996;5.180;2023-04-29T07:42:41;21.13;;;11.82;;
70455;SDS011;57916;51.996;5.180;2023-04-29T07:45:08;22.67;;;12.00;;
70455;SDS011;57916;51.996;5.180;2023-04-29T07:47:35;24.02;;;12.15;;
70455;SDS011;57916;51.996;5.180;2023-04-29T07:50:02;22.02;;;11.25;;
70455;SDS011;57916;51.996;5.180;2023-04-29T07:52:29;22.77;;;11.43;;
70455;SDS011;57916;51.996;5.180;2023-04-29T07:54:56;27.15;;;12.25;;
70455;SDS011;57916;51.996;5.180;2023-04-29T07:57:23;21.20;;;11.32;;
70455;SDS011;57916;51.996;5.180;2023-04-29T07:59:53;19.92;;;11.32;;
70455;SDS011;57916;51.996;5.180;2023-04-29T08:02:20;18.90;;;10.50;;
70455;SDS011;57916;51.996;5.180;2023-04-29T08:04:48;17.15;;;10.05;;
70455;SDS011;57916;51.996;5.180;2023-04-29T08:07:17;22.95;;;10.25;;
70455;SDS011;57916;51.996;5.180;2023-04-29T08:09:44;20.27;;;9.55;;
70455;SDS011;57916;51.996;5.180;2023-04-29T08:12:11;19.67;;;9.77;;
70455;SDS011;57916;51.996;5.180;2023-04-29T08:14:39;18.75;;;10.15;;
70455;SDS011;57916;51.996;5.180;2023-04-29T08:17:06;16.40;;;9.60;;
70455;SDS011;57916;51.996;5.180;2023-04-29T08:19:33;19.17;;;9.23;;
70455;SDS011;57916;51.996;5.180;2023-04-29T08:22:01;17.00;;;9.80;;
70455;SDS011;57916;51.996;5.180;2023-04-29T08:24:29;16.67;;;8.80;;
70455;SDS011;57916;51.996;5.180;2023-04-29T08:26:58;17.58;;;8.18;;
70455;SDS011;57916;51.996;5.180;2023-04-29T08:29:25;13.55;;;7.95;;
70455;SDS011;57916;51.996;5.180;2023-04-29T08:31:52;14.73;;;7.40;;
70455;SDS011;57916;51.996;5.180;2023-04-29T08:34:19;14.10;;;8.20;;
70455;SDS011;57916;51.996;5.180;2023-04-29T08:36:46;12.90;;;7.75;;
70455;SDS011;57916;51.996;5.180;2023-04-29T08:39:13;13.63;;;7.72;;
70455;SDS011;57916;51.996;5.180;2023-04-29T08:41:40;15.88;;;7.82;;
70455;SDS011;57916;51.996;5.180;2023-04-29T08:44:10;14.07;;;7.35;;
70455;SDS011;57916;51.996;5.180;2023-04-29T08:46:37;14.23;;;7.75;;
70455;SDS011;57916;51.996;5.180;2023-04-29T08:49:05;10.95;;;6.63;;
70455;SDS011;57916;51.996;5.180;2023-04-29T08:51:33;15.85;;;6.78;;
70455;SDS011;57916;51.996;5.180;2023-04-29T08:54:00;15.80;;;7.35;;
70455;SDS011;57916;51.996;5.180;2023-04-29T08:56:27;10.65;;;6.30;;
70455;SDS011;57916;51.996;5.180;2023-04-29T08:58:56;12.38;;;7.25;;
70455;SDS011;57916;51.996;5.180;2023-04-29T09:01:26;14.25;;;7.07;;
70455;SDS011;57916;51.996;5.180;2023-04-29T09:06:41;12.18;;;6.15;;
70455;SDS011;57916;51.996;5.180;2023-04-29T09:09:09;16.48;;;6.97;;
70455;SDS011;57916;51.996;5.180;2023-04-29T09:11:36;14.23;;;6.90;;
70455;SDS011;57916;51.996;5.180;2023-04-29T09:14:04;11.52;;;6.15;;
70455;SDS011;57916;51.996;5.180;2023-04-29T09:16:31;11.60;;;6.65;;
70455;SDS011;57916;51.996;5.180;2023-04-29T09:18:58;9.73;;;5.60;;
70455;SDS011;57916;51.996;5.180;2023-04-29T09:21:26;9.65;;;5.78;;
70455;SDS011;57916;51.996;5.180;2023-04-29T09:23:55;12.70;;;6.18;;
70455;SDS011;57916;51.996;5.180;2023-04-29T09:26:23;11.25;;;6.15;;
70455;SDS011;57916;51.996;5.180;2023-04-29T09:31:41;9.40;;;4.37;;
70455;SDS011;57916;51.996;5.180;2023-04-29T09:34:09;5.53;;;4.50;;
70455;SDS011;57916;51.996;5.180;2023-04-29T09:36:45;8.98;;;4.85;;
70455;SDS011;57916;51.996;5.180;2023-04-29T09:44:20;7.80;;;5.27;;
70455;SDS011;57916;51.996;5.180;2023-04-29T09:47:05;13.45;;;6.90;;
70455;SDS011;57916;51.996;5.180;2023-04-29T09:49:34;15.68;;;7.40;;
70455;SDS011;57916;51.996;5.180;2023-04-29T09:52:07;14.65;;;6.57;;
70455;SDS011;57916;51.996;5.180;2023-04-29T09:54:45;10.15;;;6.05;;
70455;SDS011;57916;51.996;5.180;2023-04-29T09:57:12;12.45;;;5.57;;
70455;SDS011;57916;51.996;5.180;2023-04-29T09:59:41;13.65;;;5.93;;
70455;SDS011;57916;51.996;5.180;2023-04-29T10:02:12;7.90;;;5.20;;
70455;SDS011;57916;51.996;5.180;2023-04-29T10:04:41;9.23;;;5.53;;
70455;SDS011;57916;51.996;5.180;2023-04-29T10:07:14;11.02;;;5.85;;
70455;SDS011;57916;51.996;5.180;2023-04-29T10:09:43;9.45;;;5.25;;
70455;SDS011;57916;51.996;5.180;2023-04-29T10:12:16;10.63;;;5.25;;
70455;SDS011;57916;51.996;5.180;2023-04-29T10:17:23;7.63;;;5.00;;
70455;SDS011;57916;51.996;5.180;2023-04-29T10:20:03;10.60;;;4.90;;
70455;SDS011;57916;51.996;5.180;2023-04-29T10:25:15;7.82;;;4.50;;
70455;SDS011;57916;51.996;5.180;2023-04-29T10:27:43;7.97;;;4.20;;
70455;SDS011;57916;51.996;5.180;2023-04-29T10:30:15;7.85;;;4.88;;
70455;SDS011;57916;51.996;5.180;2023-04-29T10:32:44;8.93;;;4.18;;
70455;SDS011;57916;51.996;5.180;2023-04-29T10:35:17;7.38;;;3.42;;
70455;SDS011;57916;51.996;5.180;2023-04-29T10:37:46;4.40;;;3.35;;
70455;SDS011;57916;51.996;5.180;2023-04-29T10:40:15;7.60;;;4.07;;
70455;SDS011;57916;51.996;5.180;2023-04-29T10:42:44;6.35;;;4.00;;
70455;SDS011;57916;51.996;5.180;2023-04-29T10:50:28;5.35;;;3.40;;
70455;SDS011;57916;51.996;5.180;2023-04-29T10:52:55;4.28;;;3.88;;
70455;SDS011;57916;51.996;5.180;2023-04-29T10:55:23;7.50;;;4.00;;
70455;SDS011;57916;51.996;5.180;2023-04-29T10:57:54;5.90;;;3.97;;
70455;SDS011;57916;51.996;5.180;2023-04-29T11:00:26;5.82;;;3.97;;
70455;SDS011;57916;51.996;5.180;2023-04-29T11:02:54;5.85;;;4.20;;
70455;SDS011;57916;51.996;5.180;2023-04-29T11:05:28;6.97;;;4.27;;
70455;SDS011;57916;51.996;5.180;2023-04-29T11:10:52;5.50;;;4.07;;
70455;SDS011;57916;51.996;5.180;2023-04-29T11:13:29;9.95;;;4.03;;
70455;SDS011;57916;51.996;5.180;2023-04-29T11:16:04;6.30;;;3.63;;
70455;SDS011;57916;51.996;5.180;2023-04-29T11:18:32;6.40;;;4.55;;
70455;SDS011;57916;51.996;5.180;2023-04-29T11:23:38;5.57;;;3.63;;
70455;SDS011;57916;51.996;5.180;2023-04-29T11:26:10;4.18;;;3.30;;
70455;SDS011;57916;51.996;5.180;2023-04-29T11:28:37;4.30;;;3.57;;
70455;SDS011;57916;51.996;5.180;2023-04-29T11:31:07;4.95;;;3.65;;
70455;SDS011;57916;51.996;5.180;2023-04-29T11:33:34;5.57;;;3.78;;
70455;SDS011;57916;51.996;5.180;2023-04-29T11:36:01;6.47;;;3.45;;
70455;SDS011;57916;51.996;5.180;2023-04-29T11:38:29;4.38;;;3.90;;
70455;SDS011;57916;51.996;5.180;2023-04-29T11:40:56;5.93;;;3.28;;
70455;SDS011;57916;51.996;5.180;2023-04-29T11:43:25;3.80;;;3.40;;
70455;SDS011;57916;51.996;5.180;2023-04-29T11:45:52;4.97;;;3.70;;
70455;SDS011;57916;51.996;5.180;2023-04-29T11:48:23;6.68;;;3.95;;
70455;SDS011;57916;51.996;5.180;2023-04-29T11:50:56;4.13;;;3.30;;
70455;SDS011;57916;51.996;5.180;2023-04-29T11:53:25;3.30;;;2.77;;
70455;SDS011;57916;51.996;5.180;2023-04-29T11:55:53;4.10;;;2.80;;
70455;SDS011;57916;51.996;5.180;2023-04-29T11:58:21;3.40;;;2.67;;
70455;SDS011;57916;51.996;5.180;2023-04-29T12:00:51;5.28;;;2.70;;
70455;SDS011;57916;51.996;5.180;2023-04-29T12:03:19;3.00;;;2.40;;
70455;SDS011;57916;51.996;5.180;2023-04-29T12:05:47;3.70;;;2.40;;
70455;SDS011;57916;51.996;5.180;2023-04-29T12:08:20;3.55;;;2.17;;
70455;SDS011;57916;51.996;5.180;2023-04-29T12:10:47;2.90;;;2.70;;
70455;SDS011;57916;51.996;5.180;2023-04-29T12:13:18;2.40;;;2.20;;
70455;SDS011;57916;51.996;5.180;2023-04-29T12:15:46;2.83;;;2.17;;
70455;SDS011;57916;51.996;5.180;2023-04-29T12:18:14;5.75;;;2.28;;
70455;SDS011;57916;51.996;5.180;2023-04-29T12:20:43;3.40;;;2.05;;
70455;SDS011;57916;51.996;5.180;2023-04-29T12:23:11;3.70;;;2.10;;
70455;SDS011;57916;51.996;5.180;2023-04-29T12:25:39;5.80;;;2.53;;
70455;SDS011;57916;51.996;5.180;2023-04-29T12:28:12;3.65;;;2.90;;
70455;SDS011;57916;51.996;5.180;2023-04-29T12:30:39;3.00;;;2.40;;
70455;SDS011;57916;51.996;5.180;2023-04-29T12:33:08;2.50;;;2.10;;
70455;SDS011;57916;51.996;5.180;2023-04-29T12:35:36;3.20;;;2.17;;
70455;SDS011;57916;51.996;5.180;2023-04-29T12:38:02;2.95;;;1.90;;
70455;SDS011;57916;51.996;5.180;2023-04-29T12:40:30;2.35;;;1.95;;
70455;SDS011;57916;51.996;5.180;2023-04-29T12:43:05;3.25;;;2.10;;
70455;SDS011;57916;51.996;5.180;2023-04-29T12:45:33;6.32;;;2.00;;
70455;SDS011;57916;51.996;5.180;2023-04-29T12:48:00;2.28;;;2.00;;
70455;SDS011;57916;51.996;5.180;2023-04-29T12:50:31;2.35;;;2.00;;
70455;SDS011;57916;51.996;5.180;2023-04-29T12:52:59;3.40;;;2.30;;
70455;SDS011;57916;51.996;5.180;2023-04-29T12:55:26;4.60;;;2.15;;
70455;SDS011;57916;51.996;5.180;2023-04-29T12:57:53;4.97;;;2.28;;
70455;SDS011;57916;51.996;5.180;2023-04-29T13:00:20;4.75;;;2.72;;
70455;SDS011;57916;51.996;5.180;2023-04-29T13:02:48;4.07;;;1.98;;
70455;SDS011;57916;51.996;5.180;2023-04-29T13:05:15;3.22;;;2.25;;
70455;SDS011;57916;51.996;5.180;2023-04-29T13:07:42;2.20;;;2.10;;
70455;SDS011;57916;51.996;5.180;2023-04-29T13:10:09;5.55;;;2.40;;
70455;SDS011;57916;51.996;5.180;2023-04-29T13:12:38;3.55;;;2.55;;
70455;SDS011;57916;51.996;5.180;2023-04-29T13:15:05;3.20;;;2.47;;
70455;SDS011;57916;51.996;5.180;2023-04-29T13:17:34;3.20;;;2.60;;
70455;SDS011;57916;51.996;5.180;2023-04-29T13:20:02;4.80;;;2.65;;
70455;SDS011;57916;51.996;5.180;2023-04-29T13:22:30;5.38;;;3.40;;
70455;SDS011;57916;51.996;5.180;2023-04-29T13:24:57;4.32;;;3.90;;
70455;SDS011;57916;51.996;5.180;2023-04-29T13:27:24;4.03;;;2.65;;
70455;SDS011;57916;51.996;5.180;2023-04-29T13:29:52;5.28;;;3.30;;
70455;SDS011;57916;51.996;5.180;2023-04-29T13:32:18;7.15;;;3.85;;
70455;SDS011;57916;51.996;5.180;2023-04-29T13:34:50;4.03;;;3.50;;
70455;SDS011;57916;51.996;5.180;2023-04-29T13:37:17;5.47;;;4.15;;
70455;SDS011;57916;51.996;5.180;2023-04-29T13:39:45;9.57;;;4.53;;
70455;SDS011;57916;51.996;5.180;2023-04-29T13:42:13;6.95;;;3.90;;
70455;SDS011;57916;51.996;5.180;2023-04-29T13:44:41;6.20;;;3.90;;
70455;SDS011;57916;51.996;5.180;2023-04-29T13:47:18;5.28;;;3.80;;
70455;SDS011;57916;51.996;5.180;2023-04-29T13:49:50;4.88;;;3.72;;
70455;SDS011;57916;51.996;5.180;2023-04-29T13:52:20;4.57;;;3.10;;
70455;SDS011;57916;51.996;5.180;2023-04-29T13:54:51;4.78;;;3.20;;
70455;SDS011;57916;51.996;5.180;2023-04-29T13:57:21;4.43;;;3.28;;
70455;SDS011;57916;51.996;5.180;2023-04-29T13:59:51;6.10;;;3.30;;
70455;SDS011;57916;51.996;5.180;2023-04-29T14:02:20;6.97;;;3.60;;
70455;SDS011;57916;51.996;5.180;2023-04-29T14:04:51;6.90;;;3.60;;
70455;SDS011;57916;51.996;5.180;2023-04-29T14:07:19;4.82;;;3.55;;
70455;SDS011;57916;51.996;5.180;2023-04-29T14:09:46;6.10;;;3.60;;
70455;SDS011;57916;51.996;5.180;2023-04-29T14:12:14;8.80;;;3.20;;
70455;SDS011;57916;51.996;5.180;2023-04-29T14:14:41;5.95;;;3.17;;
70455;SDS011;57916;51.996;5.180;2023-04-29T14:17:08;3.20;;;2.90;;
70455;SDS011;57916;51.996;5.180;2023-04-29T14:19:35;2.80;;;2.60;;
70455;SDS011;57916;51.996;5.180;2023-04-29T14:22:02;4.70;;;2.60;;
70455;SDS011;57916;51.996;5.180;2023-04-29T14:24:29;4.63;;;2.75;;
70455;SDS011;57916;51.996;5.180;2023-04-29T14:26:56;5.32;;;2.75;;
70455;SDS011;57916;51.996;5.180;2023-04-29T14:29:23;4.65;;;2.60;;
70455;SDS011;57916;51.996;5.180;2023-04-29T14:31:51;4.72;;;2.80;;
70455;SDS011;57916;51.996;5.180;2023-04-29T14:34:18;4.25;;;2.78;;
70455;SDS011;57916;51.996;5.180;2023-04-29T14:36:45;7.57;;;2.97;;
70455;SDS011;57916;51.996;5.180;2023-04-29T14:39:12;4.32;;;3.03;;
70455;SDS011;57916;51.996;5.180;2023-04-29T14:41:39;3.30;;;2.77;;
70455;SDS011;57916;51.996;5.180;2023-04-29T14:44:06;5.95;;;2.60;;
70455;SDS011;57916;51.996;5.180;2023-04-29T14:46:33;5.53;;;2.60;;
70455;SDS011;57916;51.996;5.180;2023-04-29T14:49:00;2.88;;;2.50;;
70455;SDS011;57916;51.996;5.180;2023-04-29T14:51:27;3.92;;;2.50;;
70455;SDS011;57916;51.996;5.180;2023-04-29T14:53:54;4.53;;;2.42;;
70455;SDS011;57916;51.996;5.180;2023-04-29T14:56:21;4.20;;;2.00;;
70455;SDS011;57916;51.996;5.180;2023-04-29T14:58:48;3.83;;;2.33;;
70455;SDS011;57916;51.996;5.180;2023-04-29T15:01:15;5.28;;;2.50;;
70455;SDS011;57916;51.996;5.180;2023-04-29T15:03:42;4.72;;;2.38;;
70455;SDS011;57916;51.996;5.180;2023-04-29T15:06:10;4.73;;;2.30;;
70455;SDS011;57916;51.996;5.180;2023-04-29T15:08:38;4.30;;;2.30;;
70455;SDS011;57916;51.996;5.180;2023-04-29T15:11:05;4.43;;;2.40;;
70455;SDS011;57916;51.996;5.180;2023-04-29T15:13:32;4.88;;;2.00;;
70455;SDS011;57916;51.996;5.180;2023-04-29T15:15:59;2.35;;;1.65;;
70455;SDS011;57916;51.996;5.180;2023-04-29T15:18:26;2.45;;;1.60;;
70455;SDS011;57916;51.996;5.180;2023-04-29T15:20:53;3.40;;;1.70;;
70455;SDS011;57916;51.996;5.180;2023-04-29T15:23:19;1.93;;;1.60;;
70455;SDS011;57916;51.996;5.180;2023-04-29T15:25:47;3.13;;;1.92;;